Time;durP1;ratioP1;P1;durP2;ratioP2;P2;SDS_P1;SDS_P2;PMS_P1;PMS_P2;Temp;Humidity;BMP_temperature;BMP_pressure;BME280_temperature;BME280_humidity;BME280_pressure;Samples;Min_cycle;Max_cycle;Signal;HPM_P1;HPM_P2
2023/12/08 00:02:13;;;;;;;0.22;0.22;;;;;;;-1.61;100.00;95832.53;5044666;28;20033;-77
2023/12/08 00:04:59;;;;;;;0.28;0.28;;;;;;;-1.57;100.00;95823.28;5034434;28;20473;-77
2023/12/08 00:07:45;;;;;;;0.20;0.20;;;;;;;-1.64;100.00;95825.81;5045425;28;20155;-77
2023/12/08 00:10:31;;;;;;;0.20;0.20;;;;;;;-1.56;100.00;95822.25;5045199;28;20497;-77
2023/12/08 00:13:17;;;;;;;0.20;0.20;;;;;;;-1.55;100.00;95797.69;5044596;28;20025;-77
2023/12/08 00:16:03;;;;;;;0.30;0.30;;;;;;;-1.57;100.00;95784.72;5037526;28;20056;-77
2023/12/08 00:18:49;;;;;;;0.20;0.20;;;;;;;-1.55;100.00;95790.63;5029417;28;20033;-77
2023/12/08 00:21:35;;;;;;;0.20;0.20;;;;;;;-1.66;100.00;95827.84;5045392;28;20041;-77
2023/12/08 00:24:21;;;;;;;0.20;0.20;;;;;;;-1.61;100.00;95801.84;5046705;28;20464;-76
2023/12/08 00:27:07;;;;;;;0.20;0.20;;;;;;;-1.63;100.00;95809.09;5031980;28;20044;-76
2023/12/08 00:29:53;;;;;;;0.20;0.20;;;;;;;-1.58;100.00;95796.22;5043250;28;20052;-76
2023/12/08 00:32:39;;;;;;;0.20;0.20;;;;;;;-1.62;100.00;95817.78;5041855;28;20036;-76
2023/12/08 00:35:25;;;;;;;0.20;0.20;;;;;;;-1.51;100.00;95789.22;5043170;28;20485;-76
2023/12/08 00:38:11;;;;;;;0.20;0.20;;;;;;;-1.45;100.00;95806.03;5043462;28;20068;-76
2023/12/08 00:40:56;;;;;;;0.20;0.20;;;;;;;-1.43;100.00;95759.41;5043655;28;20049;-76
2023/12/08 00:43:42;;;;;;;0.20;0.20;;;;;;;-1.43;100.00;95775.97;5043345;28;20081;-76
2023/12/08 00:46:29;;;;;;;0.20;0.20;;;;;;;-1.47;100.00;95769.47;5042667;28;20502;-76
2023/12/08 00:49:15;;;;;;;0.20;0.20;;;;;;;-1.55;100.00;95800.28;5045371;28;20483;-76
2023/12/08 00:52:01;;;;;;;0.20;0.20;;;;;;;-1.51;100.00;95819.91;5036266;28;20091;-76
2023/12/08 00:54:47;;;;;;;0.20;0.20;;;;;;;-1.54;100.00;95834.22;5044729;28;20037;-77
2023/12/08 00:57:33;;;;;;;0.20;0.20;;;;;;;-1.61;100.00;95846.47;5042226;28;20591;-77
2023/12/08 01:00:19;;;;;;;0.20;0.20;;;;;;;-1.53;100.00;95838.47;5036019;28;20482;-77
2023/12/08 01:03:05;;;;;;;0.20;0.20;;;;;;;-1.55;100.00;95839.66;5042278;28;20157;-77
2023/12/08 01:05:51;;;;;;;0.10;0.10;;;;;;;-1.53;100.00;95838.47;5042326;28;20048;-78
2023/12/08 01:08:37;;;;;;;0.20;0.20;;;;;;;-1.51;100.00;95836.44;5045045;28;20389;-77
2023/12/08 01:11:23;;;;;;;0.20;0.20;;;;;;;-1.50;100.00;95816.28;5044927;28;20033;-77
2023/12/08 01:14:09;;;;;;;0.20;0.20;;;;;;;-1.35;100.00;95776.81;5042977;28;20051;-77
2023/12/08 01:16:55;;;;;;;0.20;0.20;;;;;;;-1.28;100.00;95759.31;5044336;28;20044;-77
2023/12/08 01:19:41;;;;;;;0.20;0.20;;;;;;;-1.26;100.00;95754.66;5043937;28;20041;-77
2023/12/08 01:22:27;;;;;;;0.20;0.20;;;;;;;-1.27;100.00;95726.81;5044020;28;20049;-77
2023/12/08 01:25:13;;;;;;;0.20;0.20;;;;;;;-1.32;100.00;95698.50;5043634;28;20515;-76
2023/12/08 01:28:00;;;;;;;0.20;0.20;;;;;;;-1.35;100.00;95688.38;5041239;28;20036;-76
2023/12/08 01:30:46;;;;;;;0.20;0.20;;;;;;;-1.47;100.00;95722.25;5041364;28;20292;-75
2023/12/08 01:33:32;;;;;;;0.20;0.20;;;;;;;-1.37;100.00;95715.84;5043183;28;20261;-76
2023/12/08 01:36:17;;;;;;;0.20;0.20;;;;;;;-1.41;100.00;95726.69;5043086;28;20427;-76
2023/12/08 01:39:03;;;;;;;0.20;0.20;;;;;;;-1.54;100.00;95745.00;5041375;28;20051;-76
2023/12/08 01:41:50;;;;;;;0.20;0.20;;;;;;;-1.53;100.00;95757.13;5043110;28;20064;-76
2023/12/08 01:44:36;;;;;;;0.20;0.20;;;;;;;-1.63;100.00;95756.63;5048599;28;20045;-76
2023/12/08 01:47:22;;;;;;;0.20;0.20;;;;;;;-1.64;100.00;95734.00;5046530;28;20044;-75
2023/12/08 01:50:09;;;;;;;0.22;0.22;;;;;;;-1.56;100.00;95764.53;5045239;28;20037;-76
2023/12/08 01:52:55;;;;;;;0.20;0.20;;;;;;;-1.53;100.00;95772.03;5034241;28;20041;-76
2023/12/08 01:55:41;;;;;;;0.20;0.20;;;;;;;-1.50;100.00;95785.59;5037888;28;20059;-76
2023/12/08 01:58:27;;;;;;;0.20;0.20;;;;;;;-1.41;100.00;95762.63;5047125;28;20060;-75
2023/12/08 02:01:16;;;;;;;0.28;0.28;;;;;;;-1.47;100.00;95764.22;5038406;28;20041;-76
2023/12/08 02:04:02;;;;;;;0.20;0.20;;;;;;;-1.46;100.00;95751.91;5046758;28;20395;-76
2023/12/08 02:06:48;;;;;;;0.20;0.20;;;;;;;-1.37;100.00;95727.16;5033928;28;20123;-76
2023/12/08 02:09:34;;;;;;;0.20;0.20;;;;;;;-1.30;100.00;95719.31;5046725;28;20153;-76
2023/12/08 02:12:20;;;;;;;0.20;0.20;;;;;;;-1.24;100.00;95715.94;5046130;28;20230;-76
2023/12/08 02:15:06;;;;;;;0.20;0.20;;;;;;;-1.34;100.00;95732.00;5047615;28;20266;-76
2023/12/08 02:17:53;;;;;;;0.20;0.20;;;;;;;-1.42;100.00;95735.59;5045316;28;20494;-77
2023/12/08 02:20:40;;;;;;;0.20;0.20;;;;;;;-1.22;100.00;95734.91;5034282;28;20063;-76
2023/12/08 02:23:25;;;;;;;0.20;0.20;;;;;;;-1.35;100.00;95734.81;5045983;28;20099;-77
2023/12/08 02:26:11;;;;;;;0.20;0.20;;;;;;;-1.39;100.00;95728.34;5046177;28;20028;-77
2023/12/08 02:28:57;;;;;;;0.20;0.20;;;;;;;-1.40;100.00;95722.28;5045346;28;20062;-76
2023/12/08 02:32:05;;;;;;;0.10;0.10;;;;;;;-1.33;100.00;95728.38;5045200;28;20726;-77
2023/12/08 02:34:52;;;;;;;0.20;0.20;;;;;;;-1.28;100.00;95733.06;5031381;28;20037;-77
2023/12/08 02:37:46;;;;;;;0.20;0.20;;;;;;;-1.29;100.00;95726.19;5031429;28;20143;-76
2023/12/08 02:40:32;;;;;;;0.20;0.20;;;;;;;-1.22;100.00;95730.47;5046536;28;20136;-76
2023/12/08 02:43:17;;;;;;;0.20;0.20;;;;;;;-1.19;100.00;95727.47;5045961;28;20116;-76
2023/12/08 02:46:03;;;;;;;0.20;0.20;;;;;;;-1.10;100.00;95730.72;5043902;28;20582;-76
2023/12/08 02:48:49;;;;;;;0.20;0.20;;;;;;;-1.17;100.00;95740.38;5044362;28;20051;-76
2023/12/08 02:51:35;;;;;;;0.20;0.20;;;;;;;-1.23;100.00;95734.09;5047134;28;20047;-77
2023/12/08 02:54:21;;;;;;;0.20;0.20;;;;;;;-1.17;100.00;95725.47;5043572;28;20048;-76
2023/12/08 02:57:07;;;;;;;0.20;0.20;;;;;;;-1.15;100.00;95730.53;5037530;28;20040;-77
2023/12/08 02:59:53;;;;;;;0.20;0.20;;;;;;;-1.15;100.00;95725.28;5044595;28;20703;-77
2023/12/08 03:02:39;;;;;;;0.20;0.20;;;;;;;-1.08;100.00;95707.75;5044689;28;20139;-76
2023/12/08 03:05:24;;;;;;;0.20;0.20;;;;;;;-1.05;100.00;95715.22;5047657;28;20500;-77
2023/12/08 03:08:10;;;;;;;0.20;0.20;;;;;;;-1.05;100.00;95709.97;5046701;28;20072;-76
2023/12/08 03:10:56;;;;;;;0.20;0.20;;;;;;;-1.10;100.00;95693.16;5043709;28;20045;-77
2023/12/08 03:13:42;;;;;;;0.20;0.20;;;;;;;-1.07;100.00;95698.84;5045082;28;20474;-77
2023/12/08 03:16:28;;;;;;;0.10;0.10;;;;;;;-1.09;100.00;95692.97;5046765;28;20044;-77
2023/12/08 03:19:13;;;;;;;0.20;0.20;;;;;;;-1.06;100.00;95689.97;5045416;28;20157;-77
2023/12/08 03:21:59;;;;;;;0.20;0.20;;;;;;;-1.07;100.00;95683.09;5044120;28;20078;-76
2023/12/08 03:24:45;;;;;;;0.20;0.20;;;;;;;-0.99;100.00;95675.06;5044074;28;20511;-76
2023/12/08 03:27:31;;;;;;;0.20;0.20;;;;;;;-1.03;100.00;95665.94;5047639;28;20463;-76
2023/12/08 03:30:17;;;;;;;0.20;0.20;;;;;;;-1.03;100.00;95663.31;5046595;28;20041;-76
2023/12/08 03:33:03;;;;;;;0.20;0.20;;;;;;;-1.05;100.00;95654.81;5043801;28;20075;-76
2023/12/08 03:35:48;;;;;;;0.20;0.20;;;;;;;-1.00;100.00;95649.00;5045782;28;20515;-76
2023/12/08 03:38:34;;;;;;;0.20;0.20;;;;;;;-0.99;100.00;95654.03;5031371;28;20094;-76
2023/12/08 03:41:20;;;;;;;0.20;0.20;;;;;;;-1.01;100.00;95648.19;5046648;28;20765;-76
2023/12/08 03:44:06;;;;;;;0.20;0.20;;;;;;;-1.04;100.00;95647.75;5044474;28;20039;-76
2023/12/08 03:46:52;;;;;;;0.30;0.30;;;;;;;-0.98;100.00;95644.34;5043886;28;20044;-76
2023/12/08 03:49:37;;;;;;;0.20;0.20;;;;;;;-0.99;100.00;95645.34;5045079;28;20366;-76
2023/12/08 03:52:23;;;;;;;0.20;0.20;;;;;;;-0.96;100.00;95637.06;5042724;28;20041;-76
2023/12/08 03:55:09;;;;;;;0.20;0.20;;;;;;;-1.06;100.00;95640.06;5047523;28;20267;-76
2023/12/08 03:57:55;;;;;;;0.20;0.20;;;;;;;-1.10;100.00;95636.19;5044104;28;20041;-76
2023/12/08 04:00:44;;;;;;;0.20;0.20;;;;;;;-1.09;100.00;95639.63;5032393;28;20120;-76
2023/12/08 04:03:30;;;;;;;0.20;0.20;;;;;;;-1.12;100.00;95643.47;5044120;28;20087;-76
2023/12/08 04:06:16;;;;;;;0.10;0.10;;;;;;;-1.09;100.00;95643.06;5044879;28;20405;-76
2023/12/08 04:09:02;;;;;;;0.20;0.20;;;;;;;-1.19;100.00;95634.75;5042458;28;20045;-77
2023/12/08 04:11:48;;;;;;;0.20;0.20;;;;;;;-1.18;100.00;95646.88;5044007;28;20049;-76
2023/12/08 04:14:33;;;;;;;0.20;0.20;;;;;;;-1.18;100.00;95631.13;5044687;28;20044;-77
2023/12/08 04:17:19;;;;;;;0.25;0.25;;;;;;;-1.22;100.00;95632.53;5044093;28;20041;-76
2023/12/08 04:20:06;;;;;;;0.20;0.20;;;;;;;-1.25;100.00;95646.03;5043887;28;20493;-76
2023/12/08 04:22:51;;;;;;;0.20;0.20;;;;;;;-1.28;100.00;95634.09;5044656;28;20404;-77
2023/12/08 04:25:37;;;;;;;0.20;0.20;;;;;;;-1.28;100.00;95630.69;5043720;28;20046;-77
2023/12/08 04:28:23;;;;;;;0.20;0.20;;;;;;;-1.29;100.00;95631.69;5043468;28;20392;-77
2023/12/08 04:31:09;;;;;;;0.20;0.20;;;;;;;-1.21;100.00;95629.69;5044141;28;20029;-76
2023/12/08 04:33:55;;;;;;;0.20;0.20;;;;;;;-1.27;100.00;95622.59;5029715;28;20029;-77
2023/12/08 04:36:41;;;;;;;0.20;0.20;;;;;;;-1.18;100.00;95626.69;5043145;28;20345;-77
2023/12/08 04:39:26;;;;;;;0.20;0.20;;;;;;;-1.22;100.00;95624.66;5042277;28;20091;-76
2023/12/08 04:42:12;;;;;;;0.20;0.20;;;;;;;-1.32;100.00;95630.28;5045340;28;20036;-77
2023/12/08 04:44:58;;;;;;;0.20;0.20;;;;;;;-1.30;100.00;95627.44;5041898;28;20044;-76
2023/12/08 04:47:44;;;;;;;0.20;0.20;;;;;;;-1.31;100.00;95618.75;5044885;28;20503;-77
2023/12/08 04:50:30;;;;;;;0.20;0.20;;;;;;;-1.26;100.00;95618.97;5045545;28;20205;-76
2023/12/08 04:53:16;;;;;;;0.22;0.22;;;;;;;-1.27;100.00;95619.16;5043108;28;20093;-77
2023/12/08 04:56:02;;;;;;;0.20;0.20;;;;;;;-1.39;100.00;95621.53;5030131;28;20067;-77
2023/12/08 04:58:48;;;;;;;0.20;0.20;;;;;;;-1.36;100.00;95617.72;5044210;28;20037;-77
2023/12/08 05:01:36;;;;;;;0.20;0.20;;;;;;;-1.39;100.00;95621.53;5046499;28;20716;-77
2023/12/08 05:04:22;;;;;;;0.30;0.30;;;;;;;-1.33;100.00;95607.63;5046962;28;20041;-77
2023/12/08 05:07:08;;;;;;;0.20;0.20;;;;;;;-1.38;100.00;95615.28;5046453;28;20059;-76
2023/12/08 05:09:54;;;;;;;0.30;0.30;;;;;;;-1.43;100.00;95617.69;5046994;28;20457;-76
2023/12/08 05:12:40;;;;;;;0.20;0.20;;;;;;;-1.34;100.00;95603.38;5043286;28;20071;-76
2023/12/08 05:15:26;;;;;;;0.20;0.20;;;;;;;-1.34;100.00;95594.69;5048080;28;20449;-76
2023/12/08 05:18:12;;;;;;;0.20;0.20;;;;;;;-1.32;100.00;95611.06;5047990;28;20489;-76
2023/12/08 05:20:58;;;;;;;0.20;0.20;;;;;;;-1.30;100.00;95606.44;5043879;28;20059;-76
2023/12/08 05:23:44;;;;;;;0.20;0.20;;;;;;;-1.30;100.00;95609.06;5049397;28;20047;-79
2023/12/08 05:26:30;;;;;;;0.20;0.20;;;;;;;-1.28;100.00;95601.81;5050753;28;20041;-77
2023/12/08 05:29:16;;;;;;;0.20;0.20;;;;;;;-1.35;100.00;95603.59;5050463;28;20102;-77
2023/12/08 05:32:03;;;;;;;0.20;0.20;;;;;;;-1.33;100.00;95602.38;5048832;28;20385;-77
2023/12/08 05:34:49;;;;;;;0.20;0.20;;;;;;;-1.32;100.00;95595.31;5049661;28;20040;-76
2023/12/08 05:37:35;;;;;;;0.20;0.20;;;;;;;-1.35;100.00;95599.13;5022303;28;20044;-77
2023/12/08 05:40:21;;;;;;;0.20;0.20;;;;;;;-1.34;100.00;95608.63;5049038;28;20128;-77
2023/12/08 05:43:07;;;;;;;0.20;0.20;;;;;;;-1.33;100.00;95609.44;5050307;28;20357;-77
2023/12/08 05:45:55;;;;;;;0.20;0.20;;;;;;;-1.31;100.00;95615.31;5049041;28;20097;-77
2023/12/08 05:48:43;;;;;;;0.20;0.20;;;;;;;-1.30;100.00;95607.25;5049501;28;20038;-77
2023/12/08 05:51:29;;;;;;;0.20;0.20;;;;;;;-1.35;100.00;95606.22;5047863;28;20060;-77
2023/12/08 05:54:15;;;;;;;0.20;0.20;;;;;;;-1.33;100.00;95604.19;5048116;28;20451;-78
2023/12/08 05:57:01;;;;;;;0.20;0.20;;;;;;;-1.23;100.00;95602.84;5050390;28;20458;-77
2023/12/08 05:59:47;;;;;;;0.20;0.20;;;;;;;-1.28;100.00;95620.19;5047315;28;20043;-78
2023/12/08 06:02:33;;;;;;;0.20;0.20;;;;;;;-1.29;100.00;95621.19;5048573;28;20393;-78
2023/12/08 06:05:19;;;;;;;0.20;0.20;;;;;;;-1.19;100.00;95627.69;5050911;28;20049;-78
2023/12/08 06:08:04;;;;;;;0.20;0.20;;;;;;;-1.21;100.00;95631.53;5046697;28;20044;-77
2023/12/08 06:10:51;;;;;;;0.20;0.20;;;;;;;-1.16;100.00;95623.88;5048858;28;20041;-78
2023/12/08 06:13:37;;;;;;;0.20;0.20;;;;;;;-1.20;100.00;95618.19;5047868;28;20098;-78
2023/12/08 06:16:23;;;;;;;0.30;0.30;;;;;;;-1.16;100.00;95624.69;5047378;28;20090;-77
2023/12/08 06:19:09;;;;;;;0.20;0.20;;;;;;;-1.20;100.00;95627.88;5048725;28;20106;-77
2023/12/08 06:21:55;;;;;;;0.20;0.20;;;;;;;-1.25;100.00;95625.84;5047067;28;20040;-78
2023/12/08 06:24:41;;;;;;;0.20;0.20;;;;;;;-1.26;100.00;95626.03;5050610;28;20040;-78
2023/12/08 06:27:27;;;;;;;0.20;0.20;;;;;;;-1.29;100.00;95629.06;5050607;28;20052;-78
2023/12/08 06:30:13;;;;;;;0.20;0.20;;;;;;;-1.28;100.00;95635.94;5045586;28;20035;-76
2023/12/08 06:32:59;;;;;;;0.20;0.20;;;;;;;-1.36;100.00;95636.09;5047403;28;20040;-76
2023/12/08 06:35:46;;;;;;;0.20;0.20;;;;;;;-1.37;100.00;95630.03;5050025;28;20040;-76
2023/12/08 06:38:33;;;;;;;0.20;0.20;;;;;;;-1.35;100.00;95622.75;5050936;28;20493;-76
2023/12/08 06:41:19;;;;;;;0.20;0.20;;;;;;;-1.39;100.00;95626.78;5047813;28;20124;-77
2023/12/08 06:44:05;;;;;;;0.20;0.20;;;;;;;-1.34;100.00;95627.00;5045850;28;20029;-76
2023/12/08 06:46:50;;;;;;;0.20;0.20;;;;;;;-1.50;100.00;95625.50;5047883;28;20119;-76
2023/12/08 06:49:36;;;;;;;0.20;0.20;;;;;;;-1.52;100.00;95635.41;5048355;28;20044;-77
2023/12/08 06:52:22;;;;;;;0.20;0.20;;;;;;;-1.47;100.00;95629.59;5049566;28;20555;-77
2023/12/08 06:55:08;;;;;;;0.20;0.20;;;;;;;-1.45;100.00;95635.44;5048240;28;20448;-77
2023/12/08 06:57:54;;;;;;;0.10;0.10;;;;;;;-1.49;100.00;95644.69;5046958;28;20451;-77
2023/12/08 07:00:40;;;;;;;0.20;0.20;;;;;;;-1.44;100.00;95630.00;5048828;28;20064;-77
2023/12/08 07:03:26;;;;;;;0.20;0.20;;;;;;;-1.50;100.00;95627.31;5034723;28;20123;-77
2023/12/08 07:06:12;;;;;;;0.20;0.20;;;;;;;-1.50;100.00;95646.50;5047516;28;20558;-77
2023/12/08 07:08:57;;;;;;;0.20;0.20;;;;;;;-1.56;100.00;95655.13;5047035;28;20055;-77
2023/12/08 07:11:44;;;;;;;0.20;0.20;;;;;;;-1.53;100.00;95646.09;5043790;28;20330;-77
2023/12/08 07:14:30;;;;;;;0.20;0.20;;;;;;;-1.58;100.00;95656.34;5048050;28;20093;-78
2023/12/08 07:17:16;;;;;;;0.20;0.20;;;;;;;-1.58;100.00;95651.09;5047248;28;20466;-76
2023/12/08 07:20:04;;;;;;;0.22;0.22;;;;;;;-1.53;100.00;95660.03;5046632;28;20036;-77
2023/12/08 07:22:49;;;;;;;0.20;0.20;;;;;;;-1.53;100.00;95646.09;5045381;28;20606;-78
2023/12/08 07:25:35;;;;;;;0.20;0.20;;;;;;;-1.56;100.00;95649.88;5045637;28;20583;-77
2023/12/08 07:28:21;;;;;;;0.20;0.20;;;;;;;-1.54;100.00;95641.84;5044606;28;20056;-77
2023/12/08 07:31:08;;;;;;;0.20;0.20;;;;;;;-1.51;100.00;95646.69;5046100;28;20473;-77
2023/12/08 07:33:55;;;;;;;0.20;0.20;;;;;;;-1.49;100.00;95644.69;5046437;28;20091;-77
2023/12/08 07:36:41;;;;;;;0.20;0.20;;;;;;;-1.46;100.00;95654.81;5047037;28;20047;-77
2023/12/08 07:39:27;;;;;;;0.20;0.20;;;;;;;-1.42;100.00;95667.34;5046992;28;20041;-76
2023/12/08 07:42:14;;;;;;;0.20;0.20;;;;;;;-1.31;100.00;95668.63;5047776;28;20039;-77
2023/12/08 07:45:00;;;;;;;0.20;0.20;;;;;;;-1.25;100.00;95677.53;5047320;28;20025;-77
2023/12/08 07:47:47;;;;;;;0.20;0.20;;;;;;;-1.31;100.00;95684.38;5049279;28;20149;-77
2023/12/08 07:50:33;;;;;;;0.20;0.20;;;;;;;-1.28;100.00;95673.50;5047025;28;20370;-77
2023/12/08 07:53:19;;;;;;;0.20;0.20;;;;;;;-1.34;100.00;95669.00;5047895;28;20321;-77
2023/12/08 07:56:05;;;;;;;0.20;0.20;;;;;;;-1.35;100.00;95672.63;5035357;28;20094;-77
2023/12/08 07:58:51;;;;;;;0.20;0.20;;;;;;;-1.39;100.00;95676.66;5047092;28;20044;-77
2023/12/08 08:01:37;;;;;;;0.20;0.20;;;;;;;-1.33;100.00;95677.69;5045167;28;20048;-78
2023/12/08 08:04:23;;;;;;;0.20;0.20;;;;;;;-1.34;100.00;95674.25;5043896;28;20521;-77
2023/12/08 08:07:09;;;;;;;0.20;0.20;;;;;;;-1.35;100.00;95680.50;5047882;28;20178;-77
2023/12/08 08:09:55;;;;;;;0.20;0.20;;;;;;;-1.29;100.00;95687.63;5047130;28;20565;-77
2023/12/08 08:12:41;;;;;;;0.20;0.20;;;;;;;-1.20;100.00;95694.34;5047648;28;20047;-77
2023/12/08 08:15:27;;;;;;;0.20;0.20;;;;;;;-1.26;100.00;95679.34;5044339;28;20048;-77
2023/12/08 08:18:12;;;;;;;0.20;0.20;;;;;;;-1.30;100.00;95686.00;5045157;28;20037;-77
2023/12/08 08:20:58;;;;;;;0.20;0.20;;;;;;;-1.27;100.00;95684.78;5046118;28;20537;-77
2023/12/08 08:23:44;;;;;;;0.20;0.20;;;;;;;-1.28;100.00;95685.81;5033802;28;20029;-79
2023/12/08 08:26:30;;;;;;;0.20;0.20;;;;;;;-1.17;100.00;95680.84;5047237;28;20036;-76
2023/12/08 08:29:16;;;;;;;0.20;0.20;;;;;;;-1.14;100.00;95683.06;5044653;28;20063;-76
2023/12/08 08:32:02;;;;;;;0.20;0.20;;;;;;;-1.19;100.00;95682.00;5044634;28;20037;-77
2023/12/08 08:34:48;;;;;;;0.20;0.20;;;;;;;-1.14;100.00;95680.44;5030047;28;20406;-77
2023/12/08 08:37:34;;;;;;;0.30;0.30;;;;;;;-1.22;100.00;95672.72;5043973;28;20130;-76
2023/12/08 08:40:20;;;;;;;0.20;0.20;;;;;;;-1.24;100.00;95677.34;5045891;28;20429;-76
2023/12/08 08:43:06;;;;;;;0.20;0.20;;;;;;;-1.12;100.00;95675.78;5044826;28;20033;-76
2023/12/08 08:45:52;;;;;;;0.20;0.20;;;;;;;-1.13;100.00;95673.38;5046092;28;20040;-76
2023/12/08 08:48:38;;;;;;;0.20;0.20;;;;;;;-1.07;100.00;95672.59;5043975;28;20033;-76
2023/12/08 08:51:24;;;;;;;0.25;0.25;;;;;;;-1.16;100.00;95679.00;5046433;28;20032;-76
2023/12/08 08:54:10;;;;;;;0.20;0.20;;;;;;;-0.97;100.00;95686.16;5048177;28;20290;-77
2023/12/08 08:56:56;;;;;;;0.25;0.25;;;;;;;-0.92;100.00;95691.66;5049112;28;20399;-76
2023/12/08 08:59:42;;;;;;;0.20;0.20;;;;;;;-1.10;100.00;95680.84;5038349;28;20475;-76
2023/12/08 09:02:28;;;;;;;0.20;0.20;;;;;;;-1.09;100.00;95692.16;5048763;28;20048;-76
2023/12/08 09:05:13;;;;;;;0.20;0.20;;;;;;;-1.09;100.00;95689.53;5048626;28;20041;-77
2023/12/08 09:08:00;;;;;;;0.20;0.20;;;;;;;-1.00;100.00;95704.94;5049555;28;20055;-76
2023/12/08 09:10:46;;;;;;;0.20;0.20;;;;;;;-0.87;100.00;95691.84;5049002;28;20072;-76
2023/12/08 09:13:31;;;;;;;0.20;0.20;;;;;;;-0.88;100.00;95695.50;5050070;28;20559;-77
2023/12/08 09:16:18;;;;;;;0.20;0.20;;;;;;;-0.90;100.00;95705.41;5039437;28;20044;-77
2023/12/08 09:19:05;;;;;;;0.38;0.30;;;;;;;-0.82;100.00;95700.97;5038897;28;20039;-76
2023/12/08 09:21:51;;;;;;;0.25;0.25;;;;;;;-0.86;100.00;95698.75;5048182;28;20828;-77
2023/12/08 09:24:37;;;;;;;0.32;0.30;;;;;;;-0.83;100.00;95712.50;5049841;28;20032;-77
2023/12/08 09:27:22;;;;;;;0.22;0.22;;;;;;;-0.73;100.00;95708.50;5048573;28;20555;-77
2023/12/08 09:30:09;;;;;;;0.20;0.20;;;;;;;-0.89;100.00;95712.28;5049547;28;20447;-77
2023/12/08 09:32:54;;;;;;;0.30;0.30;;;;;;;-0.89;100.00;95722.78;5050790;28;20041;-77
2023/12/08 09:35:40;;;;;;;0.28;0.28;;;;;;;-0.70;100.00;95720.41;5050731;28;20488;-77
2023/12/08 09:38:27;;;;;;;0.30;0.30;;;;;;;-0.69;100.00;95724.69;5038046;28;20067;-77
2023/12/08 09:41:15;;;;;;;0.30;0.30;;;;;;;-0.74;100.00;95725.28;5050320;28;20546;-77
2023/12/08 09:44:12;;;;;;;0.30;0.30;;;;;;;-0.70;100.00;95723.88;5049966;28;20545;-77
2023/12/08 09:47:02;;;;;;;0.30;0.30;;;;;;;-0.78;100.00;95720.59;5049417;28;20386;-77
2023/12/08 09:49:49;;;;;;;0.20;0.20;;;;;;;-0.78;100.00;95718.78;5052274;28;20036;-77
2023/12/08 09:52:35;;;;;;;0.30;0.30;;;;;;;-0.73;100.00;95716.38;5032449;28;20040;-77
2023/12/08 09:55:22;;;;;;;0.20;0.20;;;;;;;-0.77;100.00;95722.25;5048518;28;20737;-77
2023/12/08 09:58:10;;;;;;;0.22;0.22;;;;;;;-0.82;100.00;95719.38;5047728;28;20899;-77
2023/12/08 10:00:58;;;;;;;0.20;0.20;;;;;;;-0.58;100.00;95700.47;5046574;28;20215;-77
2023/12/08 10:03:44;;;;;;;0.20;0.20;;;;;;;-0.52;100.00;95715.47;5049139;28;20132;-77
2023/12/08 10:06:32;;;;;;;0.20;0.20;;;;;;;-0.37;100.00;95716.13;5050711;28;20040;-77
2023/12/08 10:09:20;;;;;;;0.20;0.20;;;;;;;-0.52;100.00;95712.81;5048993;28;20059;-77
2023/12/08 10:12:06;;;;;;;0.47;0.30;;;;;;;-0.45;100.00;95708.41;5046454;28;20081;-77
2023/12/08 10:14:54;;;;;;;0.30;0.30;;;;;;;-0.35;100.00;95708.03;5048003;28;20043;-77
2023/12/08 10:17:48;;;;;;;0.20;0.20;;;;;;;-0.40;100.00;95716.50;5045791;28;20197;-77
2023/12/08 10:20:34;;;;;;;0.20;0.20;;;;;;;-0.44;100.00;95715.28;5051004;28;20087;-77
2023/12/08 10:23:21;;;;;;;0.30;0.30;;;;;;;-0.32;100.00;95705.78;5026697;28;20116;-77
2023/12/08 10:26:08;;;;;;;0.20;0.20;;;;;;;-0.24;100.00;95691.66;5038394;28;20492;-77
2023/12/08 10:29:00;;;;;;;0.20;0.20;;;;;;;-0.17;100.00;95710.06;5047896;28;20375;-77
2023/12/08 10:31:50;;;;;;;0.22;0.20;;;;;;;0.01;100.00;95718.22;5048377;28;20045;-77
2023/12/08 10:34:39;;;;;;;0.20;0.20;;;;;;;-0.12;100.00;95726.88;5046893;28;20131;-77
2023/12/08 10:37:25;;;;;;;0.28;0.28;;;;;;;-0.12;100.00;95719.00;5047278;28;20543;-77
2023/12/08 10:40:13;;;;;;;0.30;0.30;;;;;;;-0.21;100.00;95716.75;5047316;28;20121;-77
2023/12/08 10:42:59;;;;;;;0.30;0.30;;;;;;;0.12;100.00;95714.16;5044886;28;20047;-77
2023/12/08 10:45:45;;;;;;;0.35;0.30;;;;;;;0.08;100.00;95716.41;5048822;28;20452;-77
2023/12/08 10:48:33;;;;;;;0.30;0.30;;;;;;;0.01;100.00;95709.53;5049079;28;20476;-77
2023/12/08 10:51:20;;;;;;;0.20;0.20;;;;;;;0.25;100.00;95717.63;5048181;28;20049;-77
2023/12/08 10:54:06;;;;;;;0.20;0.20;;;;;;;0.47;100.00;95730.59;5047527;28;20036;-76
2023/12/08 10:56:52;;;;;;;0.20;0.20;;;;;;;0.42;100.00;95727.75;5048442;28;20083;-77
2023/12/08 10:59:43;;;;;;;0.30;0.30;;;;;;;0.33;100.00;95732.41;5045985;28;20039;-76
2023/12/08 11:02:32;;;;;;;0.20;0.20;;;;;;;0.31;100.00;95730.97;5046278;28;21730;-76
2023/12/08 11:05:28;;;;;;;0.20;0.20;;;;;;;0.41;100.00;95718.25;5050549;28;20041;-77
2023/12/08 11:08:18;;;;;;;0.20;0.20;;;;;;;0.49;100.00;95723.31;5033120;28;20036;-77
2023/12/08 11:11:08;;;;;;;0.35;0.30;;;;;;;0.32;100.00;95732.63;5048982;28;20036;-77
2023/12/08 11:14:05;;;;;;;0.20;0.20;;;;;;;0.32;100.00;95733.44;5048826;28;20041;-76
2023/12/08 11:16:57;;;;;;;0.20;0.20;;;;;;;0.46;100.00;95728.94;5047163;28;20037;-76
2023/12/08 11:19:44;;;;;;;0.22;0.22;;;;;;;0.64;100.00;95731.00;5047727;28;20049;-76
2023/12/08 11:22:32;;;;;;;0.20;0.20;;;;;;;0.73;100.00;95729.75;5036578;28;20072;-76
2023/12/08 11:25:34;;;;;;;0.20;0.20;;;;;;;0.90;100.00;95733.59;5048567;28;20067;-76
2023/12/08 11:28:30;;;;;;;0.30;0.30;;;;;;;0.48;100.00;95729.59;5048069;28;20575;-76
2023/12/08 11:31:19;;;;;;;0.30;0.30;;;;;;;0.64;100.00;95725.72;5042757;28;20109;-76
2023/12/08 11:34:13;;;;;;;0.20;0.20;;;;;;;0.63;100.00;95722.28;5046462;28;20033;-76
2023/12/08 11:37:01;;;;;;;0.20;0.20;;;;;;;0.35;100.00;95727.75;5046556;28;20999;-76
2023/12/08 11:39:47;;;;;;;0.28;0.28;;;;;;;0.30;100.00;95745.97;5050613;28;20453;-76
2023/12/08 11:42:33;;;;;;;0.20;0.20;;;;;;;0.20;100.00;95746.34;5049013;28;20037;-76
2023/12/08 11:45:20;;;;;;;0.20;0.20;;;;;;;0.57;100.00;95738.88;5050092;28;20040;-77
2023/12/08 11:48:12;;;;;;;0.20;0.20;;;;;;;0.63;100.00;95729.38;5034637;28;20093;-76
2023/12/08 11:51:03;;;;;;;0.20;0.20;;;;;;;0.58;100.00;95737.06;5047852;28;20051;-76
2023/12/08 11:53:54;;;;;;;;;;;;;;;0.66;100.00;95744.75;5049531;28;20051;-76
2023/12/08 11:56:45;;;;;;;0.20;0.20;;;;;;;0.67;100.00;95741.91;5048671;28;19961;-77
2023/12/08 11:59:41;;;;;;;0.30;0.30;;;;;;;0.38;100.00;95742.31;5016096;28;20147;-76
2023/12/08 12:02:31;;;;;;;0.20;0.20;;;;;;;0.49;100.00;95739.09;5044460;28;20493;-76
2023/12/08 12:05:17;;;;;;;0.20;0.20;;;;;;;0.45;100.00;95733.41;5047617;28;20043;-76
2023/12/08 12:08:05;;;;;;;0.20;0.20;;;;;;;0.61;100.00;95737.47;5032895;28;20121;-76
2023/12/08 12:10:53;;;;;;;0.20;0.20;;;;;;;0.72;100.00;95731.59;5045020;28;20033;-76
2023/12/08 12:13:41;;;;;;;0.20;0.20;;;;;;;0.82;100.00;95742.50;5046761;28;20412;-76
2023/12/08 12:16:27;;;;;;;0.20;0.20;;;;;;;1.08;100.00;95744.28;5045999;28;20048;-77
2023/12/08 12:19:14;;;;;;;0.20;0.20;;;;;;;0.99;100.00;95750.78;5027785;28;20060;-77
2023/12/08 12:22:00;;;;;;;0.20;0.20;;;;;;;0.82;100.00;95745.13;5042676;28;20372;-76
2023/12/08 12:24:46;;;;;;;0.20;0.20;;;;;;;0.88;100.00;95756.69;5046966;28;20392;-76
2023/12/08 12:27:32;;;;;;;0.30;0.30;;;;;;;0.88;100.00;95761.97;5044884;28;20489;-76
2023/12/08 12:30:18;;;;;;;0.20;0.20;;;;;;;1.22;100.00;95765.34;5044110;28;20032;-76
2023/12/08 12:33:04;;;;;;;0.20;0.20;;;;;;;1.37;100.00;95758.81;5043498;28;20516;-76
2023/12/08 12:35:50;;;;;;;0.20;0.20;;;;;;;1.61;100.00;95761.75;5043627;28;20036;-76
2023/12/08 12:38:35;;;;;;;0.20;0.20;;;;;;;1.60;100.00;95754.88;5045083;28;20711;-76
2023/12/08 12:41:25;;;;;;;0.30;0.30;;;;;;;1.47;100.00;95739.91;5043389;28;20049;-76
2023/12/08 12:44:15;;;;;;;0.20;0.20;;;;;;;1.37;100.00;95753.53;5036371;28;20120;-76
2023/12/08 12:47:01;;;;;;;0.20;0.20;;;;;;;1.26;100.00;95745.47;5046443;28;20036;-76
2023/12/08 12:50:00;;;;;;;0.30;0.30;;;;;;;1.07;100.00;95741.84;5044744;28;20078;-76
2023/12/08 12:52:46;;;;;;;0.30;0.30;;;;;;;0.92;100.00;95742.06;5048374;28;20075;-76
2023/12/08 12:55:32;;;;;;;0.20;0.20;;;;;;;0.94;100.00;95747.97;5048615;28;20166;-76
2023/12/08 12:58:22;;;;;;;0.20;0.20;;;;;;;1.08;100.00;95754.81;5046083;28;20068;-76